This is the latest recevied weather packets stored in our database for station/object OE9XVI-6. If no packets are shown the sender has not sent any weather packets the latest 10 day(s).
| Time | Temp. | Humidity | Pressure | Rain* | Wind** | Luminosity | Snow |
|---|---|---|---|---|---|---|---|
| 1778147808 | 10.56° C | 75% | 1015.1 hPa | 0 mm | - | - | - |
| 1778147208 | 10.56° C | 72% | 1015 hPa | 0 mm | - | - | - |
| 1778146608 | 10° C | 79% | 1015.1 hPa | 0 mm | - | - | - |
| 1778146008 | 10° C | 82% | 1015 hPa | 0 mm | - | - | - |
| 1778145408 | 10° C | 78% | 1014.9 hPa | 0 mm | - | - | - |
| 1778144809 | 10° C | 81% | 1014.9 hPa | 0 mm | - | - | - |
| 1778144291 | 10° C | 77% | 1014.8 hPa | 0 mm | - | - | - |
| 1778144209 | 10° C | 77% | 1014.8 hPa | 0 mm | - | - | - |
| 1778143609 | 10° C | 78% | 1014.7 hPa | 0 mm | - | - | - |
| 1778143009 | 9.44° C | 77% | 1014.7 hPa | 0 mm | - | - | - |
| 1778142409 | 8.89° C | 82% | 1014.7 hPa | 0 mm | - | - | - |
| 1778141809 | 8.33° C | 84% | 1014.6 hPa | 0 mm | - | - | - |
| 1778141209 | 8.33° C | 84% | 1014.6 hPa | 0 mm | - | - | - |
| 1778140609 | 8.33° C | 82% | 1014.4 hPa | 0 mm | - | - | - |
| 1778140009 | 8.89° C | 81% | 1014.4 hPa | 0 mm | - | - | - |
| 1778139409 | 8.33° C | 85% | 1014.4 hPa | 0 mm | - | - | - |
| 1778138809 | 8.33° C | 87% | 1014.4 hPa | 0 mm | - | - | - |
| 1778138209 | 7.78° C | 87% | 1014.4 hPa | 0 mm | - | - | - |
| 1778137609 | 7.78° C | 83% | 1014.3 hPa | 0 mm | - | - | - |
| 1778137009 | 7.78° C | 85% | 1014.2 hPa | 0 mm | - | - | - |
| 1778136409 | 7.78° C | 82% | 1014 hPa | 0 mm | - | - | - |
| 1778135809 | 7.78° C | 84% | 1014 hPa | 0 mm | - | - | - |
| 1778135209 | 7.22° C | 88% | 1013.9 hPa | 0 mm | - | - | - |
| 1778134609 | 7.22° C | 87% | 1013.9 hPa | 0 mm | - | - | - |
| 1778134009 | 7.22° C | 85% | 1013.7 hPa | 0 mm | - | - | - |
* Rain latest hour (hover to see other rain measurements)
** Current wind speed in m/s (hover to see current wind gust speed)